sensor_id;sensor_type;location;lat;lon;timestamp;pressure;altitude;pressure_sealevel;temperature;humidity
36378;BME280;22402;42.746;23.606;2023-05-08T00:01:03;93662.31;;;17.35;67.05
36378;BME280;22402;42.746;23.606;2023-05-08T00:03:28;93660.03;;;17.32;67.32
36378;BME280;22402;42.746;23.606;2023-05-08T00:05:54;93661.00;;;17.31;67.29
36378;BME280;22402;42.746;23.606;2023-05-08T00:08:22;93658.09;;;17.26;67.12
36378;BME280;22402;42.746;23.606;2023-05-08T00:10:48;93659.72;;;17.27;67.24
36378;BME280;22402;42.746;23.606;2023-05-08T00:13:13;93658.47;;;17.23;67.20
36378;BME280;22402;42.746;23.606;2023-05-08T00:15:39;93659.09;;;17.25;67.60
36378;BME280;22402;42.746;23.606;2023-05-08T00:18:04;93656.19;;;17.20;67.25
36378;BME280;22402;42.746;23.606;2023-05-08T00:20:30;93663.28;;;17.19;67.25
36378;BME280;22402;42.746;23.606;2023-05-08T00:22:55;93657.16;;;17.19;67.68
36378;BME280;22402;42.746;23.606;2023-05-08T00:25:22;93668.06;;;17.16;67.47
36378;BME280;22402;42.746;23.606;2023-05-08T00:27:47;93662.81;;;17.16;67.62
36378;BME280;22402;42.746;23.606;2023-05-08T00:30:13;93665.63;;;17.14;67.75
36378;BME280;22402;42.746;23.606;2023-05-08T00:32:38;93665.78;;;17.13;67.57
36378;BME280;22402;42.746;23.606;2023-05-08T00:35:04;93666.97;;;17.10;67.60
36378;BME280;22402;42.746;23.606;2023-05-08T00:37:29;93667.16;;;17.08;68.16
36378;BME280;22402;42.746;23.606;2023-05-08T00:39:55;93669.94;;;17.07;68.08
36378;BME280;22402;42.746;23.606;2023-05-08T00:42:20;93673.59;;;17.06;67.89
36378;BME280;22402;42.746;23.606;2023-05-08T00:44:46;93669.50;;;17.03;67.66
36378;BME280;22402;42.746;23.606;2023-05-08T00:47:12;93675.78;;;17.02;67.95
36378;BME280;22402;42.746;23.606;2023-05-08T00:49:37;93666.25;;;17.01;68.39
36378;BME280;22402;42.746;23.606;2023-05-08T00:52:04;93665.59;;;16.99;67.98
36378;BME280;22402;42.746;23.606;2023-05-08T00:54:35;93666.94;;;16.95;68.46
36378;BME280;22402;42.746;23.606;2023-05-08T00:57:04;93671.38;;;16.95;68.08
36378;BME280;22402;42.746;23.606;2023-05-08T00:59:31;93670.91;;;16.91;68.53
36378;BME280;22402;42.746;23.606;2023-05-08T01:01:59;93676.19;;;16.91;68.48
36378;BME280;22402;42.746;23.606;2023-05-08T01:04:25;93672.91;;;16.89;68.36
36378;BME280;22402;42.746;23.606;2023-05-08T01:06:51;93663.56;;;16.87;68.72
36378;BME280;22402;42.746;23.606;2023-05-08T01:09:16;93675.28;;;16.84;68.76
36378;BME280;22402;42.746;23.606;2023-05-08T01:11:50;93669.16;;;16.83;68.48
36378;BME280;22402;42.746;23.606;2023-05-08T01:14:28;93677.25;;;16.82;68.88
36378;BME280;22402;42.746;23.606;2023-05-08T01:17:09;93669.50;;;16.80;68.52
36378;BME280;22402;42.746;23.606;2023-05-08T01:33:50;93670.28;;;16.66;68.92
36378;BME280;22402;42.746;23.606;2023-05-08T01:41:27;93664.25;;;16.57;69.21
36378;BME280;22402;42.746;23.606;2023-05-08T01:44:05;93669.50;;;16.57;69.51
36378;BME280;22402;42.746;23.606;2023-05-08T01:46:35;93668.84;;;16.55;69.26
36378;BME280;22402;42.746;23.606;2023-05-08T01:52:05;93658.03;;;16.50;69.73
36378;BME280;22402;42.746;23.606;2023-05-08T01:54:41;93661.00;;;16.47;69.61
36378;BME280;22402;42.746;23.606;2023-05-08T01:57:09;93657.75;;;16.45;69.47
36378;BME280;22402;42.746;23.606;2023-05-08T01:59:35;93657.78;;;16.37;69.62
36378;BME280;22402;42.746;23.606;2023-05-08T02:02:02;93653.81;;;16.41;70.01
36378;BME280;22402;42.746;23.606;2023-05-08T02:04:29;93650.56;;;16.39;69.86
36378;BME280;22402;42.746;23.606;2023-05-08T02:06:57;93656.78;;;16.38;70.34
36378;BME280;22402;42.746;23.606;2023-05-08T02:09:24;93651.88;;;16.35;69.95
36378;BME280;22402;42.746;23.606;2023-05-08T02:11:52;93654.03;;;16.31;70.10
36378;BME280;22402;42.746;23.606;2023-05-08T02:14:20;93654.19;;;16.30;70.35
36378;BME280;22402;42.746;23.606;2023-05-08T02:16:47;93655.19;;;16.29;70.13
36378;BME280;22402;42.746;23.606;2023-05-08T02:19:15;93647.66;;;16.26;70.04
36378;BME280;22402;42.746;23.606;2023-05-08T02:21:43;93649.00;;;16.22;70.33
36378;BME280;22402;42.746;23.606;2023-05-08T02:24:11;93657.25;;;16.18;70.34
36378;BME280;22402;42.746;23.606;2023-05-08T02:26:38;93652.34;;;16.15;70.39
36378;BME280;22402;42.746;23.606;2023-05-08T02:29:04;93652.19;;;16.09;70.11
36378;BME280;22402;42.746;23.606;2023-05-08T02:31:30;93662.34;;;16.12;70.83
36378;BME280;22402;42.746;23.606;2023-05-08T02:33:56;93651.25;;;16.02;70.46
36378;BME280;22402;42.746;23.606;2023-05-08T02:36:25;93672.41;;;16.08;70.96
36378;BME280;22402;42.746;23.606;2023-05-08T02:38:53;93667.50;;;16.05;70.60
36378;BME280;22402;42.746;23.606;2023-05-08T02:41:22;93667.03;;;16.02;70.38
36378;BME280;22402;42.746;23.606;2023-05-08T02:43:49;93660.28;;;15.99;71.20
36378;BME280;22402;42.746;23.606;2023-05-08T02:54:17;93661.31;;;15.90;71.48
36378;BME280;22402;42.746;23.606;2023-05-08T02:56:59;93662.47;;;15.87;71.34
36378;BME280;22402;42.746;23.606;2023-05-08T02:59:36;93668.09;;;15.84;71.38
36378;BME280;22402;42.746;23.606;2023-05-08T03:04:33;93664.31;;;15.79;71.50
36378;BME280;22402;42.746;23.606;2023-05-08T03:07:01;93667.28;;;15.76;71.67
36378;BME280;22402;42.746;23.606;2023-05-08T03:09:42;93665.19;;;15.71;71.86
36378;BME280;22402;42.746;23.606;2023-05-08T03:12:17;93668.63;;;15.71;72.06
36378;BME280;22402;42.746;23.606;2023-05-08T03:17:15;93668.16;;;15.68;71.82
36378;BME280;22402;42.746;23.606;2023-05-08T03:19:46;93667.47;;;15.66;71.94
36378;BME280;22402;42.746;23.606;2023-05-08T03:24:43;93674.88;;;15.62;72.16
36378;BME280;22402;42.746;23.606;2023-05-08T03:27:10;93682.91;;;15.61;72.18
36378;BME280;22402;42.746;23.606;2023-05-08T03:29:38;93668.31;;;15.58;72.54
36378;BME280;22402;42.746;23.606;2023-05-08T03:34:31;93673.56;;;15.58;72.85
36378;BME280;22402;42.746;23.606;2023-05-08T03:36:58;93679.81;;;15.57;72.46
36378;BME280;22402;42.746;23.606;2023-05-08T03:39:24;93678.34;;;15.55;72.88
36378;BME280;22402;42.746;23.606;2023-05-08T03:41:51;93675.56;;;15.56;73.11
36378;BME280;22402;42.746;23.606;2023-05-08T03:44:16;93679.16;;;15.55;73.00
36378;BME280;22402;42.746;23.606;2023-05-08T03:46:43;93679.16;;;15.55;72.91
36378;BME280;22402;42.746;23.606;2023-05-08T03:49:09;93686.06;;;15.56;73.38
36378;BME280;22402;42.746;23.606;2023-05-08T03:51:38;93679.16;;;15.55;73.45
36378;BME280;22402;42.746;23.606;2023-05-08T03:54:05;93686.06;;;15.56;73.27
36378;BME280;22402;42.746;23.606;2023-05-08T03:56:32;93682.63;;;15.56;73.35
36378;BME280;22402;42.746;23.606;2023-05-08T03:59:15;93690.16;;;15.59;73.61
36378;BME280;22402;42.746;23.606;2023-05-08T04:01:58;93685.72;;;15.59;73.57
36378;BME280;22402;42.746;23.606;2023-05-08T04:04:40;93692.28;;;15.63;74.16
36378;BME280;22402;42.746;23.606;2023-05-08T04:08:15;93687.50;;;15.67;73.74
36378;BME280;22402;42.746;23.606;2023-05-08T04:10:28;93690.00;;;15.68;74.11
36378;BME280;22402;42.746;23.606;2023-05-08T04:15:29;93689.31;;;15.75;74.30
36378;BME280;22402;42.746;23.606;2023-05-08T04:18:09;93693.91;;;15.81;73.90
36378;BME280;22402;42.746;23.606;2023-05-08T04:20:39;93694.22;;;15.86;74.24
36378;BME280;22402;42.746;23.606;2023-05-08T04:23:06;93692.88;;;15.90;73.89
36378;BME280;22402;42.746;23.606;2023-05-08T04:25:35;93697.44;;;15.96;74.38
36378;BME280;22402;42.746;23.606;2023-05-08T04:28:02;93708.44;;;16.00;74.07
36378;BME280;22402;42.746;23.606;2023-05-08T04:30:28;93708.75;;;16.05;74.22
36378;BME280;22402;42.746;23.606;2023-05-08T04:32:54;93712.66;;;16.09;74.40
36378;BME280;22402;42.746;23.606;2023-05-08T04:35:20;93714.81;;;16.13;74.07
36378;BME280;22402;42.746;23.606;2023-05-08T04:37:46;93709.78;;;16.27;74.45
36378;BME280;22402;42.746;23.606;2023-05-08T04:40:11;93710.28;;;16.30;73.51
36378;BME280;22402;42.746;23.606;2023-05-08T04:42:37;93711.41;;;16.36;73.94
36378;BME280;22402;42.746;23.606;2023-05-08T04:45:04;93705.63;;;16.40;73.89
36378;BME280;22402;42.746;23.606;2023-05-08T04:47:30;93703.47;;;16.44;73.54
36378;BME280;22402;42.746;23.606;2023-05-08T04:49:56;93699.31;;;16.50;73.60
36378;BME280;22402;42.746;23.606;2023-05-08T04:52:21;93701.44;;;16.54;73.70
36378;BME280;22402;42.746;23.606;2023-05-08T04:54:46;93691.19;;;16.59;74.07
36378;BME280;22402;42.746;23.606;2023-05-08T04:57:12;93692.13;;;16.67;73.90
36378;BME280;22402;42.746;23.606;2023-05-08T04:59:38;93690.78;;;16.71;74.14
36378;BME280;22402;42.746;23.606;2023-05-08T05:02:04;93689.47;;;16.75;74.10
36378;BME280;22402;42.746;23.606;2023-05-08T05:04:32;93690.94;;;16.77;74.64
36378;BME280;22402;42.746;23.606;2023-05-08T05:06:58;93690.94;;;16.77;73.96
36378;BME280;22402;42.746;23.606;2023-05-08T05:09:24;93680.59;;;16.76;73.63
36378;BME280;22402;42.746;23.606;2023-05-08T05:11:50;93685.00;;;16.75;73.70
36378;BME280;22402;42.746;23.606;2023-05-08T05:14:15;93677.75;;;16.77;73.31
36378;BME280;22402;42.746;23.606;2023-05-08T05:16:41;93684.50;;;16.80;72.79
36378;BME280;22402;42.746;23.606;2023-05-08T05:19:06;93685.97;;;16.82;72.60
36378;BME280;22402;42.746;23.606;2023-05-08T05:21:32;93687.44;;;16.85;72.19
36378;BME280;22402;42.746;23.606;2023-05-08T05:23:57;93685.09;;;16.90;71.50
36378;BME280;22402;42.746;23.606;2023-05-08T05:26:22;93686.38;;;16.94;71.39
36378;BME280;22402;42.746;23.606;2023-05-08T05:28:48;93671.94;;;16.90;71.42
36378;BME280;22402;42.746;23.606;2023-05-08T05:31:13;93688.13;;;17.02;71.32
36378;BME280;22402;42.746;23.606;2023-05-08T05:33:39;93671.41;;;17.09;68.09
36378;BME280;22402;42.746;23.606;2023-05-08T05:36:05;93677.44;;;17.18;67.80
36378;BME280;22402;42.746;23.606;2023-05-08T05:38:30;93675.91;;;17.24;67.58
36378;BME280;22402;42.746;23.606;2023-05-08T05:40:55;93677.16;;;17.28;67.03
36378;BME280;22402;42.746;23.606;2023-05-08T05:43:21;93678.03;;;17.43;63.84
36378;BME280;22402;42.746;23.606;2023-05-08T05:45:46;93677.69;;;17.46;63.96
36378;BME280;22402;42.746;23.606;2023-05-08T05:48:12;93670.59;;;17.47;64.59
36378;BME280;22402;42.746;23.606;2023-05-08T05:50:37;93676.31;;;17.50;64.54
36378;BME280;22402;42.746;23.606;2023-05-08T05:53:03;93674.69;;;17.49;64.60
36378;BME280;22402;42.746;23.606;2023-05-08T05:55:28;93671.19;;;17.49;64.53
36378;BME280;22402;42.746;23.606;2023-05-08T05:57:54;93666.94;;;17.48;64.68
36378;BME280;22402;42.746;23.606;2023-05-08T06:00:19;93663.13;;;17.50;64.64
36378;BME280;22402;42.746;23.606;2023-05-08T06:02:45;93662.13;;;17.51;64.51
36378;BME280;22402;42.746;23.606;2023-05-08T06:05:11;93662.13;;;17.51;63.75
36378;BME280;22402;42.746;23.606;2023-05-08T06:07:36;93658.50;;;17.52;63.71
36378;BME280;22402;42.746;23.606;2023-05-08T06:10:02;93660.50;;;17.50;63.46
36378;BME280;22402;42.746;23.606;2023-05-08T06:12:28;93657.50;;;17.53;63.76
36378;BME280;22402;42.746;23.606;2023-05-08T06:14:54;93661.75;;;17.54;63.58
36378;BME280;22402;42.746;23.606;2023-05-08T06:17:20;93659.13;;;17.54;62.31
36378;BME280;22402;42.746;23.606;2023-05-08T06:19:46;93661.38;;;17.58;61.41
36378;BME280;22402;42.746;23.606;2023-05-08T06:22:18;93661.88;;;17.61;60.18
36378;BME280;22402;42.746;23.606;2023-05-08T06:24:43;93660.22;;;17.60;60.24
36378;BME280;22402;42.746;23.606;2023-05-08T06:27:09;93656.75;;;17.60;60.46
36378;BME280;22402;42.746;23.606;2023-05-08T06:29:35;93655.38;;;17.64;59.57
36378;BME280;22402;42.746;23.606;2023-05-08T06:32:00;93659.31;;;17.68;59.25
36378;BME280;22402;42.746;23.606;2023-05-08T06:34:25;93664.03;;;17.72;58.96
36378;BME280;22402;42.746;23.606;2023-05-08T06:36:51;93664.16;;;17.79;59.80
36378;BME280;22402;42.746;23.606;2023-05-08T06:39:17;93662.44;;;17.86;59.37
36378;BME280;22402;42.746;23.606;2023-05-08T06:41:46;93662.94;;;17.96;60.50
36378;BME280;22402;42.746;23.606;2023-05-08T06:44:11;93653.75;;;18.07;59.08
36378;BME280;22402;42.746;23.606;2023-05-08T06:46:37;93658.88;;;18.09;58.59
36378;BME280;22402;42.746;23.606;2023-05-08T06:49:02;93653.22;;;18.12;59.70
36378;BME280;22402;42.746;23.606;2023-05-08T06:51:28;93659.75;;;18.16;60.16
36378;BME280;22402;42.746;23.606;2023-05-08T06:53:53;93658.13;;;18.15;58.27
36378;BME280;22402;42.746;23.606;2023-05-08T06:56:18;93657.75;;;18.18;57.54
36378;BME280;22402;42.746;23.606;2023-05-08T06:58:44;93666.75;;;18.24;58.30
36378;BME280;22402;42.746;23.606;2023-05-08T07:01:09;93669.94;;;18.19;58.71
36378;BME280;22402;42.746;23.606;2023-05-08T07:03:35;93668.38;;;18.25;57.96
36378;BME280;22402;42.746;23.606;2023-05-08T07:06:01;93662.78;;;18.34;57.72
36378;BME280;22402;42.746;23.606;2023-05-08T07:08:26;93666.06;;;18.36;58.16
36378;BME280;22402;42.746;23.606;2023-05-08T07:10:54;93664.97;;;18.45;57.52
36378;BME280;22402;42.746;23.606;2023-05-08T07:13:19;93660.75;;;18.51;57.06
36378;BME280;22402;42.746;23.606;2023-05-08T07:15:46;93665.47;;;18.56;57.34
36378;BME280;22402;42.746;23.606;2023-05-08T07:18:11;93668.38;;;18.61;57.24
36378;BME280;22402;42.746;23.606;2023-05-08T07:20:37;93659.31;;;18.70;56.30
36378;BME280;22402;42.746;23.606;2023-05-08T07:23:03;93666.41;;;18.70;57.35
36378;BME280;22402;42.746;23.606;2023-05-08T07:25:28;93653.41;;;18.68;57.91
36378;BME280;22402;42.746;23.606;2023-05-08T07:27:54;93658.84;;;18.81;55.63
36378;BME280;22402;42.746;23.606;2023-05-08T07:30:19;93650.28;;;18.79;56.87
36378;BME280;22402;42.746;23.606;2023-05-08T07:32:45;93659.88;;;18.80;57.60
36378;BME280;22402;42.746;23.606;2023-05-08T07:35:10;93657.31;;;18.94;55.78
36378;BME280;22402;42.746;23.606;2023-05-08T07:37:37;93657.59;;;18.99;56.93
36378;BME280;22402;42.746;23.606;2023-05-08T07:40:03;93657.38;;;19.00;56.20
36378;BME280;22402;42.746;23.606;2023-05-08T07:42:29;93657.06;;;19.10;54.92
36378;BME280;22402;42.746;23.606;2023-05-08T07:44:54;93644.25;;;19.07;54.37
36378;BME280;22402;42.746;23.606;2023-05-08T07:47:20;93660.97;;;19.14;53.27
36378;BME280;22402;42.746;23.606;2023-05-08T07:49:46;93667.25;;;19.13;54.69
36378;BME280;22402;42.746;23.606;2023-05-08T07:52:11;93655.41;;;19.09;54.71
36378;BME280;22402;42.746;23.606;2023-05-08T07:54:36;93665.84;;;19.17;56.02
36378;BME280;22402;42.746;23.606;2023-05-08T07:57:02;93668.13;;;19.20;58.32
36378;BME280;22402;42.746;23.606;2023-05-08T07:59:27;93655.16;;;19.25;54.67
36378;BME280;22402;42.746;23.606;2023-05-08T08:01:53;93660.44;;;19.25;55.57
36378;BME280;22402;42.746;23.606;2023-05-08T08:04:18;93664.72;;;19.26;57.31
36378;BME280;22402;42.746;23.606;2023-05-08T08:06:44;93662.75;;;19.35;64.97
36378;BME280;22402;42.746;23.606;2023-05-08T08:09:09;93657.06;;;19.38;66.64
36378;BME280;22402;42.746;23.606;2023-05-08T08:11:35;93662.56;;;19.37;67.37
36378;BME280;22402;42.746;23.606;2023-05-08T08:14:00;93662.41;;;19.45;63.36
36378;BME280;22402;42.746;23.606;2023-05-08T08:16:26;93664.72;;;19.54;58.61
36378;BME280;22402;42.746;23.606;2023-05-08T08:18:51;93661.47;;;19.59;57.23
36378;BME280;22402;42.746;23.606;2023-05-08T08:21:17;93657.09;;;19.66;57.90
36378;BME280;22402;42.746;23.606;2023-05-08T08:23:43;93648.38;;;19.72;56.36
36378;BME280;22402;42.746;23.606;2023-05-08T08:26:09;93656.78;;;19.89;55.64
36378;BME280;22402;42.746;23.606;2023-05-08T08:28:34;93650.53;;;19.97;57.55
36378;BME280;22402;42.746;23.606;2023-05-08T08:30:59;93659.94;;;20.06;56.87
36378;BME280;22402;42.746;23.606;2023-05-08T08:33:27;93669.50;;;20.07;55.49
36378;BME280;22402;42.746;23.606;2023-05-08T08:35:52;93661.97;;;20.11;57.11
36378;BME280;22402;42.746;23.606;2023-05-08T08:38:18;93661.00;;;20.18;55.16
36378;BME280;22402;42.746;23.606;2023-05-08T08:40:43;93664.84;;;20.09;56.32
36378;BME280;22402;42.746;23.606;2023-05-08T08:43:09;93660.97;;;20.05;56.47
36378;BME280;22402;42.746;23.606;2023-05-08T08:45:37;93665.03;;;20.08;57.79
36378;BME280;22402;42.746;23.606;2023-05-08T08:48:04;93655.31;;;20.15;58.60
36378;BME280;22402;42.746;23.606;2023-05-08T08:50:30;93659.97;;;20.19;57.77
36378;BME280;22402;42.746;23.606;2023-05-08T08:53:15;93657.38;;;20.26;59.71
36378;BME280;22402;42.746;23.606;2023-05-08T08:55:47;93650.28;;;20.40;60.30
36378;BME280;22402;42.746;23.606;2023-05-08T08:58:26;93648.91;;;20.44;60.41
36378;BME280;22402;42.746;23.606;2023-05-08T09:00:56;93650.50;;;20.45;58.88
36378;BME280;22402;42.746;23.606;2023-05-08T09:03:23;93640.53;;;20.47;59.66
36378;BME280;22402;42.746;23.606;2023-05-08T09:05:49;93642.84;;;20.57;59.65
36378;BME280;22402;42.746;23.606;2023-05-08T09:08:17;93637.97;;;20.67;59.69
36378;BME280;22402;42.746;23.606;2023-05-08T09:10:42;93638.19;;;20.79;60.06
36378;BME280;22402;42.746;23.606;2023-05-08T09:13:08;93631.47;;;20.89;60.27
36378;BME280;22402;42.746;23.606;2023-05-08T09:15:33;93635.56;;;21.05;60.29
36378;BME280;22402;42.746;23.606;2023-05-08T09:18:02;93643.13;;;21.48;58.80
36378;BME280;22402;42.746;23.606;2023-05-08T09:20:28;93626.38;;;21.61;57.59
36378;BME280;22402;42.746;23.606;2023-05-08T09:22:54;93622.50;;;21.64;56.89
36378;BME280;22402;42.746;23.606;2023-05-08T09:25:20;93615.38;;;21.51;57.61
36378;BME280;22402;42.746;23.606;2023-05-08T09:27:45;93613.94;;;21.42;57.97
36378;BME280;22402;42.746;23.606;2023-05-08T09:30:12;93623.16;;;21.39;58.85
36378;BME280;22402;42.746;23.606;2023-05-08T09:32:41;93617.63;;;21.41;59.50
36378;BME280;22402;42.746;23.606;2023-05-08T09:35:08;93616.41;;;21.43;59.97
36378;BME280;22402;42.746;23.606;2023-05-08T09:37:38;93608.03;;;21.46;60.52
36378;BME280;22402;42.746;23.606;2023-05-08T09:40:14;93607.22;;;21.52;61.71
36378;BME280;22402;42.746;23.606;2023-05-08T09:42:41;93609.44;;;21.55;61.58
36378;BME280;22402;42.746;23.606;2023-05-08T09:45:07;93611.69;;;21.58;61.74
36378;BME280;22402;42.746;23.606;2023-05-08T09:47:34;93604.34;;;21.60;62.10
36378;BME280;22402;42.746;23.606;2023-05-08T09:50:09;93605.53;;;21.65;62.28
36378;BME280;22402;42.746;23.606;2023-05-08T09:52:36;93604.53;;;21.66;62.16
36378;BME280;22402;42.746;23.606;2023-05-08T09:55:03;93607.38;;;21.71;62.50
36378;BME280;22402;42.746;23.606;2023-05-08T09:57:30;93598.97;;;21.74;62.38
36378;BME280;22402;42.746;23.606;2023-05-08T10:00:09;93595.72;;;21.78;62.67
36378;BME280;22402;42.746;23.606;2023-05-08T10:02:36;93589.34;;;21.86;62.41
36378;BME280;22402;42.746;23.606;2023-05-08T10:07:47;93595.41;;;22.06;61.94
36378;BME280;22402;42.746;23.606;2023-05-08T10:10:13;93601.69;;;22.19;61.75
36378;BME280;22402;42.746;23.606;2023-05-08T10:12:39;93595.72;;;22.30;62.25
36378;BME280;22402;42.746;23.606;2023-05-08T10:15:06;93594.03;;;22.42;62.22
36378;BME280;22402;42.746;23.606;2023-05-08T10:17:43;93587.84;;;22.55;63.35
36378;BME280;22402;42.746;23.606;2023-05-08T10:20:13;93594.69;;;22.69;63.50
36378;BME280;22402;42.746;23.606;2023-05-08T10:22:42;93597.47;;;22.81;63.03
36378;BME280;22402;42.746;23.606;2023-05-08T10:25:15;93597.00;;;22.91;62.80
36378;BME280;22402;42.746;23.606;2023-05-08T10:27:51;93594.50;;;23.03;62.23
36378;BME280;22402;42.746;23.606;2023-05-08T10:30:19;93583.00;;;23.09;62.39
36378;BME280;22402;42.746;23.606;2023-05-08T10:32:48;93590.41;;;23.25;62.37
36378;BME280;22402;42.746;23.606;2023-05-08T10:35:16;93580.91;;;23.36;62.37
36378;BME280;22402;42.746;23.606;2023-05-08T10:37:43;93588.38;;;23.46;62.35
36378;BME280;22402;42.746;23.606;2023-05-08T10:40:10;93578.47;;;23.53;62.46
36378;BME280;22402;42.746;23.606;2023-05-08T10:42:36;93585.38;;;23.60;62.16
36378;BME280;22402;42.746;23.606;2023-05-08T10:45:03;93577.28;;;23.74;61.70
36378;BME280;22402;42.746;23.606;2023-05-08T10:53:16;93574.53;;;24.47;60.87
36378;BME280;22402;42.746;23.606;2023-05-08T10:55:49;93572.75;;;24.71;59.76
36378;BME280;22402;42.746;23.606;2023-05-08T10:58:29;93567.94;;;24.92;59.04
36378;BME280;22402;42.746;23.606;2023-05-08T11:03:25;93567.91;;;25.34;57.29
36378;BME280;22402;42.746;23.606;2023-05-08T11:05:52;93567.34;;;25.55;56.36
36378;BME280;22402;42.746;23.606;2023-05-08T11:08:23;93567.06;;;25.80;55.91
36378;BME280;22402;42.746;23.606;2023-05-08T11:13:36;93550.50;;;26.47;55.32
36378;BME280;22402;42.746;23.606;2023-05-08T11:16:02;93548.59;;;26.88;54.83
36378;BME280;22402;42.746;23.606;2023-05-08T11:18:28;93542.53;;;27.26;54.30
36378;BME280;22402;42.746;23.606;2023-05-08T11:20:58;93530.81;;;27.66;53.55
36378;BME280;22402;42.746;23.606;2023-05-08T11:23:28;93526.63;;;28.14;52.08
36378;BME280;22402;42.746;23.606;2023-05-08T11:26:04;93532.31;;;28.72;50.96
36378;BME280;22402;42.746;23.606;2023-05-08T11:28:32;93533.72;;;29.39;49.68
36378;BME280;22402;42.746;23.606;2023-05-08T11:31:02;93530.09;;;30.08;47.60
36378;BME280;22402;42.746;23.606;2023-05-08T11:33:29;93528.19;;;30.82;46.51
36378;BME280;22402;42.746;23.606;2023-05-08T11:38:34;93523.44;;;32.20;43.34
36378;BME280;22402;42.746;23.606;2023-05-08T11:41:01;93516.91;;;32.86;41.50
36378;BME280;22402;42.746;23.606;2023-05-08T11:46:06;93513.16;;;34.09;39.93
36378;BME280;22402;42.746;23.606;2023-05-08T11:48:34;93508.34;;;34.68;38.59
36378;BME280;22402;42.746;23.606;2023-05-08T11:51:01;93508.63;;;35.23;37.97
36378;BME280;22402;42.746;23.606;2023-05-08T11:53:30;93510.19;;;35.76;37.70
36378;BME280;22402;42.746;23.606;2023-05-08T11:55:57;93497.84;;;36.25;36.47
36378;BME280;22402;42.746;23.606;2023-05-08T11:58:23;93498.50;;;36.72;36.04
36378;BME280;22402;42.746;23.606;2023-05-08T12:00:49;93483.88;;;37.18;34.83
36378;BME280;22402;42.746;23.606;2023-05-08T12:03:17;93487.97;;;37.52;34.55
36378;BME280;22402;42.746;23.606;2023-05-08T12:05:43;93485.31;;;38.00;34.00
36378;BME280;22402;42.746;23.606;2023-05-08T12:08:10;93484.69;;;38.52;33.58
36378;BME280;22402;42.746;23.606;2023-05-08T12:13:24;93486.53;;;39.00;32.62
36378;BME280;22402;42.746;23.606;2023-05-08T12:15:52;93477.84;;;38.81;32.92
36378;BME280;22402;42.746;23.606;2023-05-08T12:18:18;93481.31;;;38.55;32.82
36378;BME280;22402;42.746;23.606;2023-05-08T12:20:44;93476.78;;;38.33;33.32
36378;BME280;22402;42.746;23.606;2023-05-08T12:23:10;93475.31;;;38.18;33.68
36378;BME280;22402;42.746;23.606;2023-05-08T12:25:39;93472.69;;;38.04;33.37
36378;BME280;22402;42.746;23.606;2023-05-08T12:28:08;93467.59;;;37.80;34.17
36378;BME280;22402;42.746;23.606;2023-05-08T12:30:34;93474.66;;;37.50;34.49
36378;BME280;22402;42.746;23.606;2023-05-08T12:33:01;93478.44;;;37.18;34.77
36378;BME280;22402;42.746;23.606;2023-05-08T12:35:27;93483.72;;;36.78;35.50
36378;BME280;22402;42.746;23.606;2023-05-08T12:37:52;93479.84;;;36.43;35.88
36378;BME280;22402;42.746;23.606;2023-05-08T12:40:30;93482.69;;;36.10;35.98
36378;BME280;22402;42.746;23.606;2023-05-08T12:42:58;93485.97;;;35.79;36.34
36378;BME280;22402;42.746;23.606;2023-05-08T12:45:29;93489.34;;;35.57;36.43
36378;BME280;22402;42.746;23.606;2023-05-08T12:48:05;93481.19;;;35.44;36.71
36378;BME280;22402;42.746;23.606;2023-05-08T12:50:35;93485.69;;;35.48;36.31
36378;BME280;22402;42.746;23.606;2023-05-08T12:53:23;93485.56;;;35.58;36.39
36378;BME280;22402;42.746;23.606;2023-05-08T12:55:53;93495.13;;;35.70;35.78
36378;BME280;22402;42.746;23.606;2023-05-08T12:58:23;93479.16;;;35.82;35.93
36378;BME280;22402;42.746;23.606;2023-05-08T13:00:50;93472.03;;;35.86;35.38
36378;BME280;22402;42.746;23.606;2023-05-08T13:03:24;93478.06;;;35.97;35.87
36378;BME280;22402;42.746;23.606;2023-05-08T13:05:50;93470.44;;;36.13;35.45
36378;BME280;22402;42.746;23.606;2023-05-08T13:08:16;93469.41;;;36.36;35.50
36378;BME280;22402;42.746;23.606;2023-05-08T13:13:15;93453.56;;;36.88;34.92
36378;BME280;22402;42.746;23.606;2023-05-08T13:15:41;93461.31;;;37.17;33.96
36378;BME280;22402;42.746;23.606;2023-05-08T13:18:07;93457.19;;;37.43;33.79
36378;BME280;22402;42.746;23.606;2023-05-08T13:20:36;93455.22;;;37.66;34.09
36378;BME280;22402;42.746;23.606;2023-05-08T13:23:02;93449.41;;;37.90;33.90
36378;BME280;22402;42.746;23.606;2023-05-08T13:25:31;93452.06;;;38.12;33.10
36378;BME280;22402;42.746;23.606;2023-05-08T13:27:57;93449.56;;;38.33;33.27
36378;BME280;22402;42.746;23.606;2023-05-08T13:30:23;93450.09;;;38.52;32.70
36378;BME280;22402;42.746;23.606;2023-05-08T13:32:49;93457.00;;;38.59;32.41
36378;BME280;22402;42.746;23.606;2023-05-08T13:35:15;93459.84;;;38.45;32.90
36378;BME280;22402;42.746;23.606;2023-05-08T13:37:40;93465.53;;;38.17;33.06
36378;BME280;22402;42.746;23.606;2023-05-08T13:40:06;93457.09;;;37.88;32.64
36378;BME280;22402;42.746;23.606;2023-05-08T13:42:32;93460.19;;;37.63;32.98
36378;BME280;22402;42.746;23.606;2023-05-08T13:44:57;93465.47;;;37.37;33.08
36378;BME280;22402;42.746;23.606;2023-05-08T13:47:23;93469.56;;;37.04;33.04
36378;BME280;22402;42.746;23.606;2023-05-08T13:49:48;93462.34;;;36.63;32.80
36378;BME280;22402;42.746;23.606;2023-05-08T13:52:15;93462.38;;;36.21;33.35
36378;BME280;22402;42.746;23.606;2023-05-08T13:54:40;93469.41;;;35.81;33.47
36378;BME280;22402;42.746;23.606;2023-05-08T13:57:09;93484.78;;;35.39;33.78
36378;BME280;22402;42.746;23.606;2023-05-08T13:59:35;93481.69;;;34.94;33.93